sensor_id;sensor_type;location;lat;lon;timestamp;P1;durP1;ratioP1;P2;durP2;ratioP2
61360;SDS011;47232;47.506;18.936;2023-02-15T00:08:03;0.00;;;0.00;;
61360;SDS011;47232;47.506;18.936;2023-02-15T00:18:14;0.00;;;0.00;;
61360;SDS011;47232;47.506;18.936;2023-02-15T00:25:13;0.00;;;0.00;;
61360;SDS011;47232;47.506;18.936;2023-02-15T01:27:00;0.00;;;0.00;;
61360;SDS011;47232;47.506;18.936;2023-02-15T01:30:27;0.00;;;0.00;;
61360;SDS011;47232;47.506;18.936;2023-02-15T01:54:53;0.00;;;0.00;;
61360;SDS011;47232;47.506;18.936;2023-02-15T02:59:04;0.00;;;0.00;;
61360;SDS011;47232;47.506;18.936;2023-02-15T03:13:20;0.00;;;0.00;;
61360;SDS011;47232;47.506;18.936;2023-02-15T04:44:40;0.00;;;0.00;;
61360;SDS011;47232;47.506;18.936;2023-02-15T04:47:07;0.00;;;0.00;;
61360;SDS011;47232;47.506;18.936;2023-02-15T04:49:34;0.00;;;0.00;;
61360;SDS011;47232;47.506;18.936;2023-02-15T04:52:01;0.00;;;0.00;;
61360;SDS011;47232;47.506;18.936;2023-02-15T04:54:27;0.00;;;0.00;;
61360;SDS011;47232;47.506;18.936;2023-02-15T04:56:52;0.00;;;0.00;;
61360;SDS011;47232;47.506;18.936;2023-02-15T04:59:18;0.00;;;0.00;;
61360;SDS011;47232;47.506;18.936;2023-02-15T05:01:50;0.00;;;0.00;;
61360;SDS011;47232;47.506;18.936;2023-02-15T05:04:15;0.00;;;0.00;;
61360;SDS011;47232;47.506;18.936;2023-02-15T05:06:42;0.00;;;0.00;;
61360;SDS011;47232;47.506;18.936;2023-02-15T05:09:08;0.00;;;0.00;;
61360;SDS011;47232;47.506;18.936;2023-02-15T05:11:36;0.10;;;0.10;;
61360;SDS011;47232;47.506;18.936;2023-02-15T05:14:10;0.00;;;0.00;;
61360;SDS011;47232;47.506;18.936;2023-02-15T05:16:36;0.00;;;0.00;;
61360;SDS011;47232;47.506;18.936;2023-02-15T05:19:04;0.00;;;0.00;;
61360;SDS011;47232;47.506;18.936;2023-02-15T05:21:29;0.00;;;0.00;;
61360;SDS011;47232;47.506;18.936;2023-02-15T05:23:56;0.00;;;0.00;;
61360;SDS011;47232;47.506;18.936;2023-02-15T05:26:23;0.00;;;0.00;;
61360;SDS011;47232;47.506;18.936;2023-02-15T05:29:08;0.00;;;0.00;;
61360;SDS011;47232;47.506;18.936;2023-02-15T05:31:36;0.00;;;0.00;;
61360;SDS011;47232;47.506;18.936;2023-02-15T05:34:03;0.00;;;0.00;;
61360;SDS011;47232;47.506;18.936;2023-02-15T05:36:34;0.00;;;0.00;;
61360;SDS011;47232;47.506;18.936;2023-02-15T05:39:00;0.00;;;0.00;;
61360;SDS011;47232;47.506;18.936;2023-02-15T05:41:26;0.00;;;0.00;;
61360;SDS011;47232;47.506;18.936;2023-02-15T05:43:54;0.00;;;0.00;;
61360;SDS011;47232;47.506;18.936;2023-02-15T05:46:21;0.00;;;0.00;;
61360;SDS011;47232;47.506;18.936;2023-02-15T05:48:48;0.00;;;0.00;;
61360;SDS011;47232;47.506;18.936;2023-02-15T05:51:14;0.00;;;0.00;;
61360;SDS011;47232;47.506;18.936;2023-02-15T05:53:41;0.00;;;0.00;;
61360;SDS011;47232;47.506;18.936;2023-02-15T05:56:11;0.10;;;0.10;;
61360;SDS011;47232;47.506;18.936;2023-02-15T05:58:39;0.00;;;0.00;;
61360;SDS011;47232;47.506;18.936;2023-02-15T06:01:47;0.00;;;0.00;;
61360;SDS011;47232;47.506;18.936;2023-02-15T06:04:13;0.00;;;0.00;;
61360;SDS011;47232;47.506;18.936;2023-02-15T06:07:36;0.00;;;0.00;;
61360;SDS011;47232;47.506;18.936;2023-02-15T06:10:04;0.00;;;0.00;;
61360;SDS011;47232;47.506;18.936;2023-02-15T06:12:30;0.00;;;0.00;;
61360;SDS011;47232;47.506;18.936;2023-02-15T06:14:57;0.00;;;0.00;;
61360;SDS011;47232;47.506;18.936;2023-02-15T06:17:47;0.00;;;0.00;;
61360;SDS011;47232;47.506;18.936;2023-02-15T06:20:18;0.00;;;0.00;;
61360;SDS011;47232;47.506;18.936;2023-02-15T06:22:49;0.00;;;0.00;;
61360;SDS011;47232;47.506;18.936;2023-02-15T06:25:23;0.00;;;0.00;;
61360;SDS011;47232;47.506;18.936;2023-02-15T06:27:57;0.00;;;0.00;;
61360;SDS011;47232;47.506;18.936;2023-02-15T06:30:23;0.00;;;0.00;;
61360;SDS011;47232;47.506;18.936;2023-02-15T06:32:50;0.00;;;0.00;;
61360;SDS011;47232;47.506;18.936;2023-02-15T06:35:40;0.00;;;0.00;;
61360;SDS011;47232;47.506;18.936;2023-02-15T06:38:09;0.00;;;0.00;;
61360;SDS011;47232;47.506;18.936;2023-02-15T06:40:35;0.00;;;0.00;;
61360;SDS011;47232;47.506;18.936;2023-02-15T06:43:34;0.00;;;0.00;;
61360;SDS011;47232;47.506;18.936;2023-02-15T06:46:03;0.00;;;0.00;;
61360;SDS011;47232;47.506;18.936;2023-02-15T06:48:30;0.10;;;0.10;;
61360;SDS011;47232;47.506;18.936;2023-02-15T06:51:09;0.10;;;0.10;;
61360;SDS011;47232;47.506;18.936;2023-02-15T06:53:51;0.10;;;0.10;;
61360;SDS011;47232;47.506;18.936;2023-02-15T06:56:52;0.10;;;0.10;;
61360;SDS011;47232;47.506;18.936;2023-02-15T06:59:47;0.00;;;0.00;;
61360;SDS011;47232;47.506;18.936;2023-02-15T07:02:34;0.10;;;0.10;;
61360;SDS011;47232;47.506;18.936;2023-02-15T07:05:22;0.00;;;0.00;;
61360;SDS011;47232;47.506;18.936;2023-02-15T07:08:27;0.10;;;0.10;;
61360;SDS011;47232;47.506;18.936;2023-02-15T07:10:55;0.00;;;0.00;;
61360;SDS011;47232;47.506;18.936;2023-02-15T07:14:00;0.10;;;0.10;;
61360;SDS011;47232;47.506;18.936;2023-02-15T07:17:26;0.10;;;0.10;;
61360;SDS011;47232;47.506;18.936;2023-02-15T07:20:39;0.00;;;0.00;;
61360;SDS011;47232;47.506;18.936;2023-02-15T07:23:45;0.00;;;0.00;;
61360;SDS011;47232;47.506;18.936;2023-02-15T07:26:54;0.00;;;0.00;;
61360;SDS011;47232;47.506;18.936;2023-02-15T07:30:20;0.00;;;0.00;;
61360;SDS011;47232;47.506;18.936;2023-02-15T07:33:45;0.00;;;0.00;;
61360;SDS011;47232;47.506;18.936;2023-02-15T07:37:11;0.00;;;0.00;;
61360;SDS011;47232;47.506;18.936;2023-02-15T07:39:56;0.00;;;0.00;;
61360;SDS011;47232;47.506;18.936;2023-02-15T07:42:59;0.00;;;0.00;;
61360;SDS011;47232;47.506;18.936;2023-02-15T07:45:32;0.00;;;0.00;;
61360;SDS011;47232;47.506;18.936;2023-02-15T07:48:58;0.00;;;0.00;;
61360;SDS011;47232;47.506;18.936;2023-02-15T07:51:45;0.10;;;0.10;;
61360;SDS011;47232;47.506;18.936;2023-02-15T07:54:30;0.10;;;0.10;;
61360;SDS011;47232;47.506;18.936;2023-02-15T07:57:19;0.10;;;0.10;;
61360;SDS011;47232;47.506;18.936;2023-02-15T08:00:13;0.00;;;0.00;;
61360;SDS011;47232;47.506;18.936;2023-02-15T08:02:49;0.00;;;0.00;;
61360;SDS011;47232;47.506;18.936;2023-02-15T08:05:56;0.10;;;0.10;;
61360;SDS011;47232;47.506;18.936;2023-02-15T08:09:16;0.00;;;0.00;;
61360;SDS011;47232;47.506;18.936;2023-02-15T08:12:21;0.00;;;0.00;;
61360;SDS011;47232;47.506;18.936;2023-02-15T08:15:23;0.10;;;0.10;;
61360;SDS011;47232;47.506;18.936;2023-02-15T08:18:38;0.10;;;0.10;;
61360;SDS011;47232;47.506;18.936;2023-02-15T08:22:05;0.10;;;0.10;;
61360;SDS011;47232;47.506;18.936;2023-02-15T08:25:10;0.10;;;0.10;;
61360;SDS011;47232;47.506;18.936;2023-02-15T08:28:17;0.10;;;0.10;;
61360;SDS011;47232;47.506;18.936;2023-02-15T08:31:43;0.10;;;0.10;;
61360;SDS011;47232;47.506;18.936;2023-02-15T08:35:08;0.10;;;0.10;;
61360;SDS011;47232;47.506;18.936;2023-02-15T08:38:33;0.10;;;0.10;;
61360;SDS011;47232;47.506;18.936;2023-02-15T08:41:41;0.10;;;0.10;;
61360;SDS011;47232;47.506;18.936;2023-02-15T08:45:05;0.00;;;0.00;;
61360;SDS011;47232;47.506;18.936;2023-02-15T08:48:31;0.00;;;0.00;;
61360;SDS011;47232;47.506;18.936;2023-02-15T08:51:39;0.10;;;0.10;;
61360;SDS011;47232;47.506;18.936;2023-02-15T08:55:05;0.10;;;0.10;;
61360;SDS011;47232;47.506;18.936;2023-02-15T08:58:31;0.10;;;0.10;;
61360;SDS011;47232;47.506;18.936;2023-02-15T09:01:38;0.10;;;0.10;;
61360;SDS011;47232;47.506;18.936;2023-02-15T09:05:03;0.10;;;0.10;;
61360;SDS011;47232;47.506;18.936;2023-02-15T09:08:29;0.10;;;0.10;;
61360;SDS011;47232;47.506;18.936;2023-02-15T09:11:55;0.10;;;0.10;;
61360;SDS011;47232;47.506;18.936;2023-02-15T09:15:21;0.10;;;0.10;;
61360;SDS011;47232;47.506;18.936;2023-02-15T09:18:31;0.10;;;0.10;;
61360;SDS011;47232;47.506;18.936;2023-02-15T09:21:59;0.10;;;0.10;;
61360;SDS011;47232;47.506;18.936;2023-02-15T09:25:21;0.10;;;0.10;;
61360;SDS011;47232;47.506;18.936;2023-02-15T09:28:48;0.10;;;0.10;;
61360;SDS011;47232;47.506;18.936;2023-02-15T09:32:13;0.10;;;0.10;;
61360;SDS011;47232;47.506;18.936;2023-02-15T09:35:35;0.10;;;0.10;;
61360;SDS011;47232;47.506;18.936;2023-02-15T09:38:45;0.10;;;0.10;;
61360;SDS011;47232;47.506;18.936;2023-02-15T09:48:39;0.10;;;0.10;;
61360;SDS011;47232;47.506;18.936;2023-02-15T09:58:40;0.10;;;0.10;;
61360;SDS011;47232;47.506;18.936;2023-02-15T10:12:57;0.10;;;0.10;;
61360;SDS011;47232;47.506;18.936;2023-02-15T10:16:34;0.10;;;0.10;;
61360;SDS011;47232;47.506;18.936;2023-02-15T10:22:47;0.10;;;0.10;;
61360;SDS011;47232;47.506;18.936;2023-02-15T10:29:08;0.10;;;0.10;;
61360;SDS011;47232;47.506;18.936;2023-02-15T10:32:36;0.10;;;0.10;;
61360;SDS011;47232;47.506;18.936;2023-02-15T10:36:39;0.10;;;0.10;;
61360;SDS011;47232;47.506;18.936;2023-02-15T10:43:36;0.10;;;0.10;;
61360;SDS011;47232;47.506;18.936;2023-02-15T10:47:05;0.20;;;0.20;;
61360;SDS011;47232;47.506;18.936;2023-02-15T10:50:48;0.20;;;0.20;;
61360;SDS011;47232;47.506;18.936;2023-02-15T10:54:15;0.20;;;0.20;;
61360;SDS011;47232;47.506;18.936;2023-02-15T11:07:40;0.10;;;0.10;;
61360;SDS011;47232;47.506;18.936;2023-02-15T11:11:08;0.10;;;0.10;;
61360;SDS011;47232;47.506;18.936;2023-02-15T11:17:40;0.20;;;0.20;;
61360;SDS011;47232;47.506;18.936;2023-02-15T11:24:20;0.10;;;0.10;;
61360;SDS011;47232;47.506;18.936;2023-02-15T11:27:46;0.20;;;0.20;;
61360;SDS011;47232;47.506;18.936;2023-02-15T11:31:13;0.20;;;0.20;;
61360;SDS011;47232;47.506;18.936;2023-02-15T11:34:49;0.20;;;0.20;;
61360;SDS011;47232;47.506;18.936;2023-02-15T11:38:10;0.20;;;0.20;;
61360;SDS011;47232;47.506;18.936;2023-02-15T11:41:36;0.20;;;0.20;;
61360;SDS011;47232;47.506;18.936;2023-02-15T11:45:14;0.10;;;0.10;;
61360;SDS011;47232;47.506;18.936;2023-02-15T11:48:32;0.20;;;0.20;;
61360;SDS011;47232;47.506;18.936;2023-02-15T11:51:58;0.20;;;0.20;;
61360;SDS011;47232;47.506;18.936;2023-02-15T11:55:23;0.20;;;0.20;;
61360;SDS011;47232;47.506;18.936;2023-02-15T11:58:56;0.20;;;0.20;;
61360;SDS011;47232;47.506;18.936;2023-02-15T12:02:19;0.20;;;0.20;;
61360;SDS011;47232;47.506;18.936;2023-02-15T12:05:44;0.20;;;0.20;;
61360;SDS011;47232;47.506;18.936;2023-02-15T12:09:30;0.20;;;0.20;;
61360;SDS011;47232;47.506;18.936;2023-02-15T12:13:15;0.20;;;0.20;;
61360;SDS011;47232;47.506;18.936;2023-02-15T12:16:41;0.20;;;0.20;;
61360;SDS011;47232;47.506;18.936;2023-02-15T12:20:20;0.20;;;0.20;;
61360;SDS011;47232;47.506;18.936;2023-02-15T12:23:39;0.20;;;0.20;;
61360;SDS011;47232;47.506;18.936;2023-02-15T12:27:13;0.30;;;0.30;;
61360;SDS011;47232;47.506;18.936;2023-02-15T12:33:56;0.20;;;0.20;;
61360;SDS011;47232;47.506;18.936;2023-02-15T12:37:28;0.30;;;0.30;;
61360;SDS011;47232;47.506;18.936;2023-02-15T12:41:03;0.20;;;0.20;;
61360;SDS011;47232;47.506;18.936;2023-02-15T12:44:30;0.30;;;0.30;;
61360;SDS011;47232;47.506;18.936;2023-02-15T12:51:29;0.20;;;0.20;;
61360;SDS011;47232;47.506;18.936;2023-02-15T12:57:40;0.30;;;0.30;;
61360;SDS011;47232;47.506;18.936;2023-02-15T13:01:12;0.20;;;0.20;;
61360;SDS011;47232;47.506;18.936;2023-02-15T13:04:37;0.30;;;0.30;;
61360;SDS011;47232;47.506;18.936;2023-02-15T13:08:04;0.30;;;0.30;;
61360;SDS011;47232;47.506;18.936;2023-02-15T13:11:34;0.20;;;0.20;;
61360;SDS011;47232;47.506;18.936;2023-02-15T13:14:59;0.30;;;0.30;;
61360;SDS011;47232;47.506;18.936;2023-02-15T13:18:33;0.30;;;0.30;;
61360;SDS011;47232;47.506;18.936;2023-02-15T13:21:57;0.30;;;0.30;;
61360;SDS011;47232;47.506;18.936;2023-02-15T13:25:27;0.30;;;0.30;;
61360;SDS011;47232;47.506;18.936;2023-02-15T13:28:54;0.30;;;0.30;;
61360;SDS011;47232;47.506;18.936;2023-02-15T13:32:24;0.30;;;0.30;;
61360;SDS011;47232;47.506;18.936;2023-02-15T13:35:54;0.30;;;0.30;;
61360;SDS011;47232;47.506;18.936;2023-02-15T13:43:19;0.30;;;0.30;;
61360;SDS011;47232;47.506;18.936;2023-02-15T13:56:48;0.30;;;0.30;;
61360;SDS011;47232;47.506;18.936;2023-02-15T14:13:44;0.30;;;0.30;;
61360;SDS011;47232;47.506;18.936;2023-02-15T14:17:23;0.40;;;0.40;;
61360;SDS011;47232;47.506;18.936;2023-02-15T14:20:49;0.30;;;0.30;;
61360;SDS011;47232;47.506;18.936;2023-02-15T14:24:17;0.40;;;0.40;;
61360;SDS011;47232;47.506;18.936;2023-02-15T14:27:43;0.40;;;0.40;;
61360;SDS011;47232;47.506;18.936;2023-02-15T14:30:49;0.40;;;0.40;;
61360;SDS011;47232;47.506;18.936;2023-02-15T14:34:21;0.40;;;0.40;;
61360;SDS011;47232;47.506;18.936;2023-02-15T14:40:42;0.50;;;0.50;;
61360;SDS011;47232;47.506;18.936;2023-02-15T14:44:42;0.50;;;0.50;;
61360;SDS011;47232;47.506;18.936;2023-02-15T14:47:52;0.60;;;0.60;;
61360;SDS011;47232;47.506;18.936;2023-02-15T14:50:55;0.60;;;0.60;;
61360;SDS011;47232;47.506;18.936;2023-02-15T14:57:30;0.60;;;0.60;;
61360;SDS011;47232;47.506;18.936;2023-02-15T15:01:32;0.70;;;0.70;;
61360;SDS011;47232;47.506;18.936;2023-02-15T15:04:34;0.70;;;0.70;;
61360;SDS011;47232;47.506;18.936;2023-02-15T15:07:48;0.70;;;0.70;;
61360;SDS011;47232;47.506;18.936;2023-02-15T15:14:54;0.80;;;0.80;;
61360;SDS011;47232;47.506;18.936;2023-02-15T15:18:08;0.80;;;0.80;;
61360;SDS011;47232;47.506;18.936;2023-02-15T15:21:53;0.70;;;0.70;;
61360;SDS011;47232;47.506;18.936;2023-02-15T15:28:58;0.70;;;0.70;;
61360;SDS011;47232;47.506;18.936;2023-02-15T15:32:22;0.70;;;0.70;;
61360;SDS011;47232;47.506;18.936;2023-02-15T15:42:58;0.50;;;0.50;;
61360;SDS011;47232;47.506;18.936;2023-02-15T15:46:28;0.50;;;0.50;;
61360;SDS011;47232;47.506;18.936;2023-02-15T15:49:41;0.40;;;0.40;;
61360;SDS011;47232;47.506;18.936;2023-02-15T15:53:19;0.30;;;0.30;;
61360;SDS011;47232;47.506;18.936;2023-02-15T15:56:44;0.30;;;0.30;;
61360;SDS011;47232;47.506;18.936;2023-02-15T16:01:09;0.30;;;0.30;;
61360;SDS011;47232;47.506;18.936;2023-02-15T16:03:50;0.20;;;0.20;;
61360;SDS011;47232;47.506;18.936;2023-02-15T16:10:26;0.20;;;0.20;;
61360;SDS011;47232;47.506;18.936;2023-02-15T16:13:48;0.20;;;0.20;;
61360;SDS011;47232;47.506;18.936;2023-02-15T16:17:14;0.20;;;0.20;;
61360;SDS011;47232;47.506;18.936;2023-02-15T16:20:39;0.10;;;0.10;;
61360;SDS011;47232;47.506;18.936;2023-02-15T16:27:40;0.10;;;0.10;;
61360;SDS011;47232;47.506;18.936;2023-02-15T16:31:07;0.10;;;0.10;;
61360;SDS011;47232;47.506;18.936;2023-02-15T16:34:31;0.10;;;0.10;;
61360;SDS011;47232;47.506;18.936;2023-02-15T16:37:39;0.10;;;0.10;;
61360;SDS011;47232;47.506;18.936;2023-02-15T16:40:48;0.10;;;0.10;;
61360;SDS011;47232;47.506;18.936;2023-02-15T16:44:16;0.10;;;0.10;;
61360;SDS011;47232;47.506;18.936;2023-02-15T16:47:45;0.10;;;0.10;;
61360;SDS011;47232;47.506;18.936;2023-02-15T16:51:10;0.10;;;0.10;;
61360;SDS011;47232;47.506;18.936;2023-02-15T16:54:35;0.10;;;0.10;;
61360;SDS011;47232;47.506;18.936;2023-02-15T16:58:04;0.10;;;0.10;;
61360;SDS011;47232;47.506;18.936;2023-02-15T17:01:29;0.10;;;0.10;;
61360;SDS011;47232;47.506;18.936;2023-02-15T17:05:08;0.10;;;0.10;;
61360;SDS011;47232;47.506;18.936;2023-02-15T17:08:43;0.10;;;0.10;;
61360;SDS011;47232;47.506;18.936;2023-02-15T17:11:59;0.10;;;0.10;;
61360;SDS011;47232;47.506;18.936;2023-02-15T17:15:33;0.00;;;0.00;;
61360;SDS011;47232;47.506;18.936;2023-02-15T17:18:47;0.10;;;0.10;;
61360;SDS011;47232;47.506;18.936;2023-02-15T17:22:23;0.10;;;0.10;;
61360;SDS011;47232;47.506;18.936;2023-02-15T17:25:23;0.10;;;0.10;;
61360;SDS011;47232;47.506;18.936;2023-02-15T17:28:30;0.10;;;0.10;;
61360;SDS011;47232;47.506;18.936;2023-02-15T17:31:43;0.10;;;0.10;;
61360;SDS011;47232;47.506;18.936;2023-02-15T17:35:18;0.10;;;0.10;;
61360;SDS011;47232;47.506;18.936;2023-02-15T17:38:30;0.10;;;0.10;;
61360;SDS011;47232;47.506;18.936;2023-02-15T17:41:43;0.10;;;0.10;;
61360;SDS011;47232;47.506;18.936;2023-02-15T17:45:09;0.10;;;0.10;;
61360;SDS011;47232;47.506;18.936;2023-02-15T17:48:03;0.10;;;0.10;;
61360;SDS011;47232;47.506;18.936;2023-02-15T17:51:13;0.10;;;0.10;;
61360;SDS011;47232;47.506;18.936;2023-02-15T17:54:39;0.10;;;0.10;;
61360;SDS011;47232;47.506;18.936;2023-02-15T17:57:55;0.00;;;0.00;;
61360;SDS011;47232;47.506;18.936;2023-02-15T18:01:13;0.10;;;0.10;;
61360;SDS011;47232;47.506;18.936;2023-02-15T18:04:17;0.00;;;0.00;;
61360;SDS011;47232;47.506;18.936;2023-02-15T18:07:25;0.10;;;0.10;;
61360;SDS011;47232;47.506;18.936;2023-02-15T18:10:27;0.10;;;0.10;;
61360;SDS011;47232;47.506;18.936;2023-02-15T18:13:51;0.00;;;0.00;;
61360;SDS011;47232;47.506;18.936;2023-02-15T18:17:16;0.10;;;0.10;;
61360;SDS011;47232;47.506;18.936;2023-02-15T18:20:43;0.00;;;0.00;;
61360;SDS011;47232;47.506;18.936;2023-02-15T18:23:44;0.00;;;0.00;;
61360;SDS011;47232;47.506;18.936;2023-02-15T18:27:11;0.00;;;0.00;;
61360;SDS011;47232;47.506;18.936;2023-02-15T18:30:39;0.00;;;0.00;;
61360;SDS011;47232;47.506;18.936;2023-02-15T18:34:01;0.10;;;0.10;;
61360;SDS011;47232;47.506;18.936;2023-02-15T18:37:13;0.00;;;0.00;;
61360;SDS011;47232;47.506;18.936;2023-02-15T18:40:38;0.10;;;0.10;;
61360;SDS011;47232;47.506;18.936;2023-02-15T18:44:07;0.10;;;0.10;;
61360;SDS011;47232;47.506;18.936;2023-02-15T18:47:29;0.00;;;0.00;;
61360;SDS011;47232;47.506;18.936;2023-02-15T18:50:35;0.00;;;0.00;;
61360;SDS011;47232;47.506;18.936;2023-02-15T18:53:39;0.00;;;0.00;;
61360;SDS011;47232;47.506;18.936;2023-02-15T18:56:26;0.10;;;0.10;;
61360;SDS011;47232;47.506;18.936;2023-02-15T19:00:05;0.00;;;0.00;;
61360;SDS011;47232;47.506;18.936;2023-02-15T19:03:29;0.00;;;0.00;;
61360;SDS011;47232;47.506;18.936;2023-02-15T19:06:35;0.00;;;0.00;;
61360;SDS011;47232;47.506;18.936;2023-02-15T19:09:41;0.00;;;0.00;;
61360;SDS011;47232;47.506;18.936;2023-02-15T19:12:47;0.00;;;0.00;;
61360;SDS011;47232;47.506;18.936;2023-02-15T19:15:38;0.00;;;0.00;;
61360;SDS011;47232;47.506;18.936;2023-02-15T19:18:45;0.00;;;0.00;;
61360;SDS011;47232;47.506;18.936;2023-02-15T19:21:50;0.00;;;0.00;;
61360;SDS011;47232;47.506;18.936;2023-02-15T19:25:34;0.00;;;0.00;;
61360;SDS011;47232;47.506;18.936;2023-02-15T19:28:47;0.10;;;0.10;;
61360;SDS011;47232;47.506;18.936;2023-02-15T19:31:33;0.10;;;0.10;;
61360;SDS011;47232;47.506;18.936;2023-02-15T19:34:21;0.10;;;0.10;;
61360;SDS011;47232;47.506;18.936;2023-02-15T19:40:54;0.00;;;0.00;;
61360;SDS011;47232;47.506;18.936;2023-02-15T19:43:52;0.00;;;0.00;;
61360;SDS011;47232;47.506;18.936;2023-02-15T19:46:22;0.00;;;0.00;;
61360;SDS011;47232;47.506;18.936;2023-02-15T19:49:29;0.00;;;0.00;;
61360;SDS011;47232;47.506;18.936;2023-02-15T19:52:16;0.00;;;0.00;;
61360;SDS011;47232;47.506;18.936;2023-02-15T19:57:15;0.00;;;0.00;;
61360;SDS011;47232;47.506;18.936;2023-02-15T20:00:24;0.00;;;0.00;;
61360;SDS011;47232;47.506;18.936;2023-02-15T20:03:02;0.00;;;0.00;;
61360;SDS011;47232;47.506;18.936;2023-02-15T20:05:48;0.10;;;0.10;;
61360;SDS011;47232;47.506;18.936;2023-02-15T20:08:39;0.00;;;0.00;;
61360;SDS011;47232;47.506;18.936;2023-02-15T20:11:45;0.00;;;0.00;;
61360;SDS011;47232;47.506;18.936;2023-02-15T20:14:30;0.00;;;0.00;;
61360;SDS011;47232;47.506;18.936;2023-02-15T20:17:20;0.10;;;0.10;;
61360;SDS011;47232;47.506;18.936;2023-02-15T20:20:14;0.00;;;0.00;;
61360;SDS011;47232;47.506;18.936;2023-02-15T20:23:13;0.00;;;0.00;;
61360;SDS011;47232;47.506;18.936;2023-02-15T20:26:13;0.10;;;0.10;;
61360;SDS011;47232;47.506;18.936;2023-02-15T20:29:13;0.10;;;0.10;;
61360;SDS011;47232;47.506;18.936;2023-02-15T20:32:19;0.10;;;0.10;;
61360;SDS011;47232;47.506;18.936;2023-02-15T20:35:20;0.10;;;0.10;;
61360;SDS011;47232;47.506;18.936;2023-02-15T20:38:30;0.00;;;0.00;;
61360;SDS011;47232;47.506;18.936;2023-02-15T20:41:38;0.10;;;0.10;;
61360;SDS011;47232;47.506;18.936;2023-02-15T20:44:40;0.00;;;0.00;;
61360;SDS011;47232;47.506;18.936;2023-02-15T20:47:47;0.00;;;0.00;;
61360;SDS011;47232;47.506;18.936;2023-02-15T20:50:25;0.10;;;0.10;;
61360;SDS011;47232;47.506;18.936;2023-02-15T20:53:17;0.10;;;0.10;;
61360;SDS011;47232;47.506;18.936;2023-02-15T20:56:40;0.10;;;0.10;;
61360;SDS011;47232;47.506;18.936;2023-02-15T21:00:08;0.10;;;0.10;;
61360;SDS011;47232;47.506;18.936;2023-02-15T21:03:32;0.10;;;0.10;;
61360;SDS011;47232;47.506;18.936;2023-02-15T21:06:06;0.10;;;0.10;;
61360;SDS011;47232;47.506;18.936;2023-02-15T21:09:27;0.00;;;0.00;;
61360;SDS011;47232;47.506;18.936;2023-02-15T21:12:52;0.00;;;0.00;;
61360;SDS011;47232;47.506;18.936;2023-02-15T21:15:49;0.10;;;0.10;;
61360;SDS011;47232;47.506;18.936;2023-02-15T21:18:59;0.10;;;0.10;;
61360;SDS011;47232;47.506;18.936;2023-02-15T21:22:05;0.10;;;0.10;;
61360;SDS011;47232;47.506;18.936;2023-02-15T21:25:34;0.00;;;0.00;;
61360;SDS011;47232;47.506;18.936;2023-02-15T21:29:00;0.10;;;0.10;;
61360;SDS011;47232;47.506;18.936;2023-02-15T21:32:26;0.00;;;0.00;;
61360;SDS011;47232;47.506;18.936;2023-02-15T21:35:53;0.00;;;0.00;;
61360;SDS011;47232;47.506;18.936;2023-02-15T21:39:25;0.00;;;0.00;;
61360;SDS011;47232;47.506;18.936;2023-02-15T21:42:50;0.10;;;0.10;;
61360;SDS011;47232;47.506;18.936;2023-02-15T21:46:18;0.10;;;0.10;;
61360;SDS011;47232;47.506;18.936;2023-02-15T21:49:42;0.00;;;0.00;;
61360;SDS011;47232;47.506;18.936;2023-02-15T21:53:07;0.10;;;0.10;;
61360;SDS011;47232;47.506;18.936;2023-02-15T21:56:37;0.00;;;0.00;;
61360;SDS011;47232;47.506;18.936;2023-02-15T22:00:03;0.00;;;0.00;;
61360;SDS011;47232;47.506;18.936;2023-02-15T22:03:32;0.00;;;0.00;;
61360;SDS011;47232;47.506;18.936;2023-02-15T22:06:58;0.00;;;0.00;;
61360;SDS011;47232;47.506;18.936;2023-02-15T22:10:25;0.00;;;0.00;;
61360;SDS011;47232;47.506;18.936;2023-02-15T22:13:49;0.00;;;0.00;;
61360;SDS011;47232;47.506;18.936;2023-02-15T22:17:25;0.00;;;0.00;;
61360;SDS011;47232;47.506;18.936;2023-02-15T22:20:50;0.00;;;0.00;;
61360;SDS011;47232;47.506;18.936;2023-02-15T22:24:16;0.00;;;0.00;;
61360;SDS011;47232;47.506;18.936;2023-02-15T22:27:41;0.00;;;0.00;;
61360;SDS011;47232;47.506;18.936;2023-02-15T22:31:12;0.00;;;0.00;;
61360;SDS011;47232;47.506;18.936;2023-02-15T22:34:35;0.00;;;0.00;;
61360;SDS011;47232;47.506;18.936;2023-02-15T22:38:01;0.00;;;0.00;;
61360;SDS011;47232;47.506;18.936;2023-02-15T22:41:28;0.10;;;0.10;;
61360;SDS011;47232;47.506;18.936;2023-02-15T22:44:53;0.00;;;0.00;;
61360;SDS011;47232;47.506;18.936;2023-02-15T22:47:25;0.00;;;0.00;;
61360;SDS011;47232;47.506;18.936;2023-02-15T22:49:56;0.00;;;0.00;;
61360;SDS011;47232;47.506;18.936;2023-02-15T22:53:03;0.00;;;0.00;;
61360;SDS011;47232;47.506;18.936;2023-02-15T22:56:16;0.00;;;0.00;;
61360;SDS011;47232;47.506;18.936;2023-02-15T22:59:41;0.00;;;0.00;;
61360;SDS011;47232;47.506;18.936;2023-02-15T23:02:11;0.10;;;0.10;;
61360;SDS011;47232;47.506;18.936;2023-02-15T23:05:01;0.10;;;0.10;;
61360;SDS011;47232;47.506;18.936;2023-02-15T23:07:27;0.00;;;0.00;;
61360;SDS011;47232;47.506;18.936;2023-02-15T23:10:34;0.00;;;0.00;;
61360;SDS011;47232;47.506;18.936;2023-02-15T23:14:00;0.00;;;0.00;;
61360;SDS011;47232;47.506;18.936;2023-02-15T23:17:28;0.00;;;0.00;;
61360;SDS011;47232;47.506;18.936;2023-02-15T23:20:57;0.00;;;0.00;;
61360;SDS011;47232;47.506;18.936;2023-02-15T23:23:44;0.00;;;0.00;;
61360;SDS011;47232;47.506;18.936;2023-02-15T23:27:18;0.00;;;0.00;;
61360;SDS011;47232;47.506;18.936;2023-02-15T23:30:44;0.00;;;0.00;;
61360;SDS011;47232;47.506;18.936;2023-02-15T23:34:16;0.00;;;0.00;;
61360;SDS011;47232;47.506;18.936;2023-02-15T23:37:40;0.10;;;0.10;;
61360;SDS011;47232;47.506;18.936;2023-02-15T23:41:08;0.00;;;0.00;;
61360;SDS011;47232;47.506;18.936;2023-02-15T23:44:14;0.00;;;0.00;;
61360;SDS011;47232;47.506;18.936;2023-02-15T23:47:39;0.00;;;0.00;;
61360;SDS011;47232;47.506;18.936;2023-02-15T23:50:54;0.00;;;0.00;;
61360;SDS011;47232;47.506;18.936;2023-02-15T23:53:59;0.00;;;0.00;;
61360;SDS011;47232;47.506;18.936;2023-02-15T23:56:32;0.00;;;0.00;;
61360;SDS011;47232;47.506;18.936;2023-02-15T23:59:08;0.00;;;0.00;;
